Thorhult, Minnesota
Current Conditions -  °F | °C
As of 6:09 PM on Friday 19 Dec 2014 (Local Time) from KVWU Reporting Station
Haze Haze  
Wind Chill: 25°   Ceiling: 800
Heat Index: 25°   Visibility: 5mi
Dew Point: 23°   Wind: 3mph
Humidity: 93%   Direction: 120°ESE
Pressure: 30.08"   Gusts: NA
Location:  48.23°N, 95.25°W
Report Text: KVWU 200009Z AUTO 12003KT 5SM BR OVC008 M04/M05 A3008 RMK AO2
Loading
Personal Weather Stations






























Interactive Weather Map New forecast layout! Learn more

10-Day Weather Forecast

Advertisements
Track Severe Weather on mobile